RJSF/FKS METAR and TAF weather

Enter ICAO airport designator
Station Type Date Time Source
RJSF METAR 2020/01/18 11:00 UTC NOAA

RJSF 181100Z 36012KT 9999 FEW015 BKN035 01/M02 Q1012


Station Type Date Time Source
RJSF Decoded METAR 2020/01/18 11:00 UTC NOAA

Fukushima Airport, Japan (RJSF) 37-14N 140-26E 375M
Jan 18, 2020 - 06:00 AM EST / 2020.01.18 1100 UTC
Wind: from the N (360 degrees) at 14 MPH (12 KT):0
Visibility: greater than 7 mile(s):0
Sky conditions: mostly cloudy
Temperature: 33 F (1 C)
Windchill: 23 F (-5 C):1
Dew Point: 28 F (-2 C)
Relative Humidity: 80%
Pressure (altimeter): 29.88 in. Hg (1012 hPa)
ob: RJSF 181100Z 36012KT 9999 FEW015 BKN035 01/M02 Q1012
cycle: 11

Station Type Date Time Source
RJSF TAF 2020/01/18 12:30 UTC NOAA

TAF RJSF 181105Z 1812/1918 36010KT 9999 FEW020 BKN040
BECMG 1909/1912 16005KT

Example: see airport list